Time;durP1;ratioP1;P1;durP2;ratioP2;P2;SDS_P1;SDS_P2;PMS_P1;PMS_P2;Temp;Humidity;BMP_temperature;BMP_pressure;BME280_temperature;BME280_humidity;BME280_pressure;Samples;Min_cycle;Max_cycle;Signal;HPM_P1;HPM_P2
2020/12/25 00:02:04;;;;;;;2.50;1.10;;;-0.10;99.90;;;;;;4993867;28;20281;-61
2020/12/25 00:04:31;;;;;;;1.67;1.00;;;0.00;99.90;;;;;;4993864;28;20237;-61
2020/12/25 00:06:57;;;;;;;3.20;1.13;;;0.00;99.90;;;;;;4993929;28;20269;-64
2020/12/25 00:09:24;;;;;;;0.90;0.73;;;0.00;99.90;;;;;;4993289;28;20233;-61
2020/12/25 00:11:50;;;;;;;4.23;1.30;;;0.00;99.90;;;;;;4993028;28;20186;-62
2020/12/25 00:14:16;;;;;;;1.43;0.90;;;0.00;99.90;;;;;;4993268;28;20240;-62
2020/12/25 00:16:44;;;;;;;1.20;1.00;;;0.00;99.90;;;;;;4993317;28;20224;-63
2020/12/25 00:19:10;;;;;;;1.83;1.40;;;-0.10;99.90;;;;;;4993026;28;20284;-60
2020/12/25 00:21:38;;;;;;;1.93;1.20;;;-0.10;99.90;;;;;;4993154;28;20281;-61
2020/12/25 00:24:05;;;;;;;2.40;1.40;;;-0.10;99.90;;;;;;4992913;28;20699;-60
2020/12/25 00:26:32;;;;;;;2.37;1.23;;;-0.10;99.90;;;;;;4993554;28;20221;-61
2020/12/25 00:29:01;;;;;;;1.50;1.20;;;0.00;99.90;;;;;;4992700;28;20320;-61
2020/12/25 00:31:29;;;;;;;2.47;1.50;;;0.00;99.90;;;;;;4992963;28;20229;-61
2020/12/25 00:33:59;;;;;;;1.00;0.80;;;-0.10;99.90;;;;;;4992403;28;20268;-62
2020/12/25 00:36:29;;;;;;;3.50;1.30;;;0.00;99.90;;;;;;4993062;28;20568;-61
2020/12/25 00:38:57;;;;;;;1.30;0.90;;;0.00;99.90;;;;;;4992805;28;20691;-61
2020/12/25 00:41:24;;;;;;;1.03;0.80;;;0.10;99.90;;;;;;4992289;28;20276;-62
2020/12/25 00:43:50;;;;;;;1.43;1.00;;;0.20;99.90;;;;;;4992312;28;20750;-63
2020/12/25 00:46:17;;;;;;;2.10;0.90;;;0.20;99.90;;;;;;4992578;28;20273;-62
2020/12/25 00:48:44;;;;;;;1.50;0.93;;;0.30;99.90;;;;;;4992383;28;20727;-63
2020/12/25 00:51:16;;;;;;;3.33;1.03;;;0.30;99.90;;;;;;4992276;28;20256;-63
2020/12/25 00:53:43;;;;;;;3.63;0.80;;;0.40;99.90;;;;;;4997158;28;20264;-62
2020/12/25 00:56:10;;;;;;;1.20;0.97;;;0.50;99.90;;;;;;5012435;28;20209;-62
2020/12/25 00:58:37;;;;;;;0.90;0.70;;;0.50;99.90;;;;;;5011708;28;20193;-62
2020/12/25 01:01:04;;;;;;;0.83;0.80;;;0.60;99.90;;;;;;5011798;28;20623;-62
2020/12/25 01:03:30;;;;;;;1.13;0.70;;;0.60;99.90;;;;;;5011890;28;20631;-63
2020/12/25 01:05:57;;;;;;;1.67;1.03;;;0.70;99.90;;;;;;5011625;28;20690;-61
2020/12/25 01:08:24;;;;;;;1.93;0.77;;;0.60;99.90;;;;;;4982973;28;20281;-63
2020/12/25 01:10:51;;;;;;;2.80;0.83;;;0.60;99.90;;;;;;4972084;28;20237;-60
2020/12/25 01:13:17;;;;;;;0.70;0.70;;;0.60;99.90;;;;;;4972795;28;20230;-61
2020/12/25 01:15:44;;;;;;;0.60;0.60;;;0.60;99.90;;;;;;4972863;28;20202;-62
2020/12/25 01:18:11;;;;;;;0.70;0.70;;;0.60;99.90;;;;;;4974545;28;20273;-62
2020/12/25 01:20:37;;;;;;;1.10;1.00;;;0.50;99.90;;;;;;5011630;28;20250;-62
2020/12/25 01:23:04;;;;;;;1.43;0.90;;;0.50;99.90;;;;;;5011895;28;20197;-61
2020/12/25 01:25:31;;;;;;;1.03;0.90;;;0.60;99.90;;;;;;5011361;28;20252;-62
2020/12/25 01:27:58;;;;;;;1.30;0.90;;;0.60;99.90;;;;;;5011901;28;20268;-60
2020/12/25 01:30:24;;;;;;;1.37;1.00;;;0.60;99.90;;;;;;5011450;28;20221;-62
2020/12/25 01:32:50;;;;;;;1.50;0.80;;;0.50;99.90;;;;;;5011438;28;20304;-63
2020/12/25 01:35:17;;;;;;;0.97;0.80;;;0.50;99.90;;;;;;5011368;28;20236;-62
2020/12/25 01:37:43;;;;;;;1.30;0.90;;;0.40;99.90;;;;;;5012238;28;20312;-61
2020/12/25 01:40:10;;;;;;;1.03;1.00;;;0.40;99.90;;;;;;5011887;28;20286;-60
2020/12/25 01:42:37;;;;;;;2.27;0.93;;;0.40;99.90;;;;;;5011765;28;20675;-65
2020/12/25 01:45:05;;;;;;;0.70;0.70;;;0.30;99.90;;;;;;5009847;28;20307;-59
2020/12/25 01:47:31;;;;;;;0.60;0.60;;;0.30;99.90;;;;;;4992387;28;20200;-63
2020/12/25 01:49:59;;;;;;;0.70;0.57;;;0.20;99.90;;;;;;4991960;28;20209;-60
2020/12/25 01:52:25;;;;;;;1.30;0.80;;;0.20;99.90;;;;;;4992114;28;20201;-60
2020/12/25 01:54:53;;;;;;;1.00;0.80;;;0.20;99.90;;;;;;4992289;28;20272;-63
2020/12/25 01:57:21;;;;;;;0.60;0.60;;;0.20;99.90;;;;;;4992493;28;20256;-63
2020/12/25 01:59:49;;;;;;;0.83;0.73;;;0.10;99.90;;;;;;4992124;28;20239;-61
2020/12/25 02:02:16;;;;;;;0.80;0.60;;;0.00;99.90;;;;;;4991778;28;20233;-63
2020/12/25 02:04:43;;;;;;;0.83;0.70;;;0.10;99.90;;;;;;4991713;28;20399;-62
2020/12/25 02:07:10;;;;;;;0.77;0.73;;;0.10;99.90;;;;;;4992002;28;20261;-63
2020/12/25 02:09:36;;;;;;;0.93;0.80;;;0.10;99.90;;;;;;4991811;28;20213;-62
2020/12/25 02:12:02;;;;;;;1.07;0.87;;;0.10;99.90;;;;;;4992205;28;20289;-62
2020/12/25 02:14:29;;;;;;;0.97;0.70;;;0.00;99.90;;;;;;4991757;28;20198;-63
2020/12/25 02:16:57;;;;;;;1.30;0.73;;;0.10;99.90;;;;;;4992107;28;20225;-62
2020/12/25 02:19:23;;;;;;;0.60;0.60;;;0.20;99.90;;;;;;4991894;28;20233;-63
2020/12/25 02:21:50;;;;;;;0.80;0.80;;;0.20;99.90;;;;;;4992676;28;20356;-61
2020/12/25 02:24:17;;;;;;;0.90;0.70;;;0.20;99.90;;;;;;4994547;28;20755;-62
2020/12/25 02:26:43;;;;;;;1.47;0.80;;;0.20;99.90;;;;;;4995147;28;20228;-63
2020/12/25 02:29:09;;;;;;;0.63;0.60;;;0.20;99.90;;;;;;4995410;28;20288;-59
2020/12/25 02:31:36;;;;;;;1.03;0.67;;;0.30;99.90;;;;;;4995211;28;20289;-62
2020/12/25 02:34:03;;;;;;;0.50;0.50;;;0.30;99.90;;;;;;4995026;28;20636;-65
2020/12/25 02:36:30;;;;;;;0.60;0.60;;;0.30;99.90;;;;;;4995370;28;20232;-60
2020/12/25 02:38:57;;;;;;;0.90;0.70;;;0.30;99.90;;;;;;4994577;28;20232;-60
2020/12/25 02:41:24;;;;;;;0.60;0.60;;;0.30;99.90;;;;;;4994996;28;20237;-61
2020/12/25 02:43:50;;;;;;;0.60;0.53;;;0.30;99.90;;;;;;4994977;28;20307;-62
2020/12/25 02:46:20;;;;;;;0.70;0.60;;;0.40;99.90;;;;;;4994501;28;20232;-61
2020/12/25 02:48:47;;;;;;;0.60;0.60;;;0.30;99.90;;;;;;4995165;28;20268;-61
2020/12/25 02:51:16;;;;;;;0.60;0.60;;;0.30;99.90;;;;;;4994688;28;20277;-61
2020/12/25 02:53:42;;;;;;;0.80;0.80;;;0.30;99.90;;;;;;4999573;28;20308;-65
2020/12/25 02:56:14;;;;;;;0.87;0.53;;;0.30;99.90;;;;;;5014136;28;20724;-62
2020/12/25 02:58:40;;;;;;;0.70;0.70;;;0.30;99.90;;;;;;5014408;28;20273;-62
2020/12/25 03:01:10;;;;;;;0.50;0.50;;;0.30;99.90;;;;;;5013648;28;20232;-61
2020/12/25 03:03:37;;;;;;;0.50;0.50;;;0.30;99.90;;;;;;5013669;28;20247;-60
2020/12/25 03:06:03;;;;;;;0.70;0.70;;;0.20;99.90;;;;;;5013791;28;20726;-62
2020/12/25 03:08:29;;;;;;;0.60;0.60;;;0.20;99.90;;;;;;5013757;28;20232;-61
2020/12/25 03:10:56;;;;;;;1.27;0.50;;;0.20;99.90;;;;;;5005697;28;20273;-61
2020/12/25 03:13:24;;;;;;;0.67;0.60;;;0.20;99.90;;;;;;4994137;28;20263;-62
2020/12/25 03:15:50;;;;;;;0.50;0.50;;;0.10;99.90;;;;;;4994567;28;20221;-61
2020/12/25 03:18:16;;;;;;;0.60;0.60;;;0.20;99.90;;;;;;4994204;28;20278;-63
2020/12/25 03:20:43;;;;;;;0.57;0.57;;;0.20;99.90;;;;;;4994379;28;20208;-61
2020/12/25 03:23:09;;;;;;;1.13;0.70;;;0.20;99.90;;;;;;4994013;28;20729;-62
2020/12/25 03:25:36;;;;;;;0.93;0.70;;;0.10;99.90;;;;;;4994233;28;20304;-62
2020/12/25 03:28:02;;;;;;;1.07;0.70;;;0.10;99.90;;;;;;4994348;28;20221;-61
2020/12/25 03:30:29;;;;;;;0.70;0.60;;;0.00;99.90;;;;;;4993894;28;20328;-62
2020/12/25 03:32:56;;;;;;;1.30;1.00;;;0.10;99.90;;;;;;4993751;28;20281;-62
2020/12/25 03:35:23;;;;;;;0.63;0.63;;;0.00;99.90;;;;;;4996347;28;20192;-62
2020/12/25 03:37:49;;;;;;;0.77;0.77;;;0.00;99.90;;;;;;5013945;28;20216;-61
2020/12/25 03:40:15;;;;;;;0.70;0.70;;;-0.10;99.90;;;;;;5012567;28;20235;-62
2020/12/25 03:42:43;;;;;;;2.00;0.63;;;-0.10;99.90;;;;;;5013310;28;20310;-60
2020/12/25 03:45:10;;;;;;;0.97;0.80;;;-0.10;99.90;;;;;;5012838;28;20217;-62
2020/12/25 03:47:37;;;;;;;0.63;0.63;;;-0.10;99.90;;;;;;5013580;28;20221;-62
2020/12/25 03:50:04;;;;;;;0.80;0.60;;;-0.10;99.90;;;;;;5013268;28;20236;-61
2020/12/25 03:52:30;;;;;;;2.10;0.90;;;-0.20;99.90;;;;;;5013229;28;20733;-61
2020/12/25 03:54:57;;;;;;;0.80;0.77;;;-0.20;99.90;;;;;;5013648;28;20271;-60
2020/12/25 03:57:23;;;;;;;0.60;0.60;;;-0.20;99.90;;;;;;5013551;28;20565;-63
2020/12/25 03:59:49;;;;;;;0.50;0.50;;;-0.20;99.90;;;;;;5013357;28;20193;-61
2020/12/25 04:02:16;;;;;;;0.90;0.90;;;-0.20;99.90;;;;;;5012982;28;20243;-61
2020/12/25 04:04:43;;;;;;;1.17;0.80;;;-0.20;99.90;;;;;;5009315;28;20249;-63
2020/12/25 04:07:10;;;;;;;0.90;0.70;;;-0.20;99.90;;;;;;4993684;28;20228;-63
2020/12/25 04:09:36;;;;;;;0.93;0.80;;;-0.20;99.90;;;;;;4993023;28;20302;-61
2020/12/25 04:12:03;;;;;;;1.03;0.70;;;-0.20;99.90;;;;;;4993080;28;20197;-61
2020/12/25 04:14:29;;;;;;;1.90;0.80;;;-0.30;99.90;;;;;;4993208;28;20301;-61
2020/12/25 04:16:56;;;;;;;0.57;0.53;;;-0.30;99.90;;;;;;4993491;28;20308;-61
2020/12/25 04:19:22;;;;;;;0.60;0.60;;;-0.30;99.90;;;;;;4993566;28;20360;-60
2020/12/25 04:21:49;;;;;;;0.80;0.80;;;-0.30;99.90;;;;;;4993031;28;20672;-61
2020/12/25 04:24:16;;;;;;;0.60;0.60;;;-0.20;99.90;;;;;;4991900;28;20308;-62
2020/12/25 04:26:46;;;;;;;0.93;0.67;;;-0.30;99.90;;;;;;4993218;28;20190;-59
2020/12/25 04:29:12;;;;;;;0.67;0.67;;;-0.30;99.90;;;;;;4993503;28;20229;-62
2020/12/25 04:31:38;;;;;;;0.77;0.70;;;-0.30;99.90;;;;;;4992689;28;20586;-61
2020/12/25 04:34:05;;;;;;;0.70;0.60;;;-0.40;99.90;;;;;;5003977;28;20544;-64
2020/12/25 04:36:31;;;;;;;0.70;0.70;;;-0.30;99.90;;;;;;5012416;28;20673;-61
2020/12/25 04:38:59;;;;;;;0.70;0.70;;;-0.40;99.90;;;;;;5012559;28;20300;-62
2020/12/25 04:41:25;;;;;;;1.20;1.07;;;-0.40;99.90;;;;;;5012912;28;20324;-62
2020/12/25 04:43:53;;;;;;;1.67;0.70;;;-0.40;99.90;;;;;;5012451;28;20232;-62
2020/12/25 04:46:21;;;;;;;2.80;0.87;;;-0.40;99.90;;;;;;5012410;28;20308;-61
2020/12/25 04:48:49;;;;;;;0.93;0.70;;;-0.40;99.90;;;;;;5012450;28;20228;-61
2020/12/25 04:51:15;;;;;;;1.13;1.00;;;-0.40;99.90;;;;;;5012023;28;20292;-60
2020/12/25 04:53:42;;;;;;;1.27;0.83;;;-0.40;99.90;;;;;;5012167;28;20228;-60
2020/12/25 04:56:09;;;;;;;0.50;0.50;;;-0.40;99.90;;;;;;5012755;28;20216;-63
2020/12/25 04:58:35;;;;;;;2.20;0.70;;;-0.40;99.90;;;;;;5012440;28;20253;-61
2020/12/25 05:01:04;;;;;;;0.97;0.80;;;-0.30;99.90;;;;;;5004402;28;20591;-61
2020/12/25 05:03:34;;;;;;;3.33;0.70;;;-0.30;99.90;;;;;;5012133;28;20240;-63
2020/12/25 05:06:11;;;;;;;0.80;0.80;;;-0.30;99.90;;;;;;5012350;28;20300;-63
2020/12/25 05:08:40;;;;;;;1.00;0.80;;;-0.30;99.90;;;;;;5012132;28;20212;-61
2020/12/25 05:11:07;;;;;;;1.90;0.97;;;-0.30;99.90;;;;;;5012107;28;20684;-61
2020/12/25 05:13:35;;;;;;;0.80;0.80;;;-0.30;99.90;;;;;;5011690;28;20228;-61
2020/12/25 05:16:01;;;;;;;0.90;0.77;;;-0.30;99.90;;;;;;5011671;28;20276;-62
2020/12/25 05:18:31;;;;;;;0.80;0.67;;;-0.30;99.90;;;;;;5011272;28;20675;-60
2020/12/25 05:20:58;;;;;;;1.37;0.93;;;-0.30;99.90;;;;;;5011841;28;20231;-61
2020/12/25 05:23:32;;;;;;;0.80;0.70;;;-0.30;99.90;;;;;;5011788;28;20208;-61
2020/12/25 05:25:59;;;;;;;1.07;0.97;;;-0.30;99.90;;;;;;5004203;28;20205;-62
2020/12/25 05:28:27;;;;;;;0.60;0.60;;;-0.30;99.90;;;;;;4993639;28;20202;-61
2020/12/25 05:30:57;;;;;;;0.70;0.70;;;-0.40;99.90;;;;;;5011497;28;20655;-61
2020/12/25 05:33:24;;;;;;;0.80;0.80;;;-0.40;99.90;;;;;;5011892;28;20284;-62
2020/12/25 05:35:53;;;;;;;1.37;1.20;;;-0.40;99.90;;;;;;5011644;28;20236;-61
2020/12/25 05:38:19;;;;;;;1.47;1.20;;;-0.50;99.90;;;;;;5011918;28;20303;-64
2020/12/25 05:40:46;;;;;;;0.77;0.77;;;-0.50;99.90;;;;;;5012078;28;20239;-61
2020/12/25 05:43:14;;;;;;;1.13;0.80;;;-0.50;99.90;;;;;;5011618;28;20716;-61
2020/12/25 05:45:41;;;;;;;1.13;0.90;;;-0.50;99.90;;;;;;5011722;28;20217;-60
2020/12/25 05:48:10;;;;;;;0.97;0.73;;;-0.50;99.90;;;;;;5012007;28;20228;-61
2020/12/25 05:50:37;;;;;;;0.70;0.70;;;-0.50;99.90;;;;;;5010612;28;20188;-62
2020/12/25 05:53:04;;;;;;;0.83;0.70;;;-0.40;99.90;;;;;;5011964;28;20291;-62
2020/12/25 05:55:32;;;;;;;0.73;0.70;;;-0.40;99.90;;;;;;5012093;28;20252;-62
2020/12/25 05:58:00;;;;;;;0.80;0.70;;;-0.50;99.90;;;;;;5002277;28;20217;-62
2020/12/25 06:00:28;;;;;;;0.80;0.70;;;-0.50;99.90;;;;;;4996344;28;20198;-61
2020/12/25 06:02:55;;;;;;;1.20;0.70;;;-0.50;99.90;;;;;;4995980;28;20202;-61
2020/12/25 06:05:25;;;;;;;1.07;0.90;;;-0.50;99.90;;;;;;4995895;28;20317;-62
2020/12/25 06:07:52;;;;;;;0.40;0.40;;;-0.50;99.90;;;;;;4995368;28;20269;-61
2020/12/25 06:10:21;;;;;;;0.80;0.63;;;-0.50;99.90;;;;;;4995794;28;20233;-62
2020/12/25 06:12:47;;;;;;;1.13;0.70;;;-0.40;99.90;;;;;;4995683;28;20289;-61
2020/12/25 06:15:22;;;;;;;0.60;0.60;;;-0.50;99.90;;;;;;4995420;28;20323;-62
2020/12/25 06:18:13;;;;;;;1.23;0.83;;;-0.50;99.90;;;;;;4995399;28;20235;-61
2020/12/25 06:20:47;;;;;;;1.07;0.90;;;-0.50;99.90;;;;;;4995314;28;20271;-63
2020/12/25 06:23:15;;;;;;;0.87;0.73;;;-0.50;99.90;;;;;;4995883;28;20228;-61
2020/12/25 06:25:41;;;;;;;0.80;0.80;;;-0.50;99.90;;;;;;5001256;28;20794;-62
2020/12/25 06:28:08;;;;;;;0.67;0.67;;;-0.50;99.90;;;;;;5014950;28;20196;-65
2020/12/25 06:30:35;;;;;;;0.70;0.70;;;-0.40;99.90;;;;;;5014868;28;20283;-62
2020/12/25 06:33:02;;;;;;;0.63;0.63;;;-0.40;99.90;;;;;;4998492;28;20561;-63
2020/12/25 06:35:34;;;;;;;0.60;0.60;;;-0.40;99.90;;;;;;4995549;28;20292;-65
2020/12/25 06:38:07;;;;;;;0.80;0.70;;;-0.40;99.90;;;;;;4995092;28;20186;-62
2020/12/25 06:40:34;;;;;;;0.90;0.70;;;-0.30;99.90;;;;;;4995077;28;20357;-63
2020/12/25 06:43:00;;;;;;;0.70;0.70;;;-0.30;99.90;;;;;;4995391;28;20224;-61
2020/12/25 06:45:32;;;;;;;0.73;0.50;;;-0.30;99.90;;;;;;4995235;28;20304;-62
2020/12/25 06:48:17;;;;;;;1.07;0.90;;;-0.30;99.90;;;;;;4995147;28;20192;-62
2020/12/25 06:50:51;;;;;;;1.60;0.70;;;-0.30;99.90;;;;;;4995382;28;20268;-61
2020/12/25 06:53:36;;;;;;;1.30;0.70;;;-0.30;99.90;;;;;;4995112;28;20553;-62
2020/12/25 06:56:11;;;;;;;0.93;0.70;;;-0.30;99.90;;;;;;4995187;28;20612;-61
2020/12/25 06:58:39;;;;;;;0.77;0.63;;;-0.20;99.90;;;;;;4994372;28;20224;-62
2020/12/25 07:01:06;;;;;;;0.87;0.87;;;-0.20;99.90;;;;;;4994485;28;20228;-63
2020/12/25 07:03:36;;;;;;;0.70;0.60;;;-0.20;99.90;;;;;;4995004;28;20286;-63
2020/12/25 07:06:04;;;;;;;2.57;0.80;;;-0.20;99.90;;;;;;4994827;28;20300;-61
2020/12/25 07:08:33;;;;;;;0.73;0.73;;;-0.20;99.90;;;;;;4993713;28;20194;-63
2020/12/25 07:11:02;;;;;;;0.70;0.70;;;-0.20;99.90;;;;;;4994464;28;20237;-61
2020/12/25 07:13:31;;;;;;;0.70;0.70;;;-0.20;99.90;;;;;;4994637;28;20277;-64
2020/12/25 07:15:58;;;;;;;0.80;0.80;;;-0.20;99.90;;;;;;4994520;28;20252;-63
2020/12/25 07:18:24;;;;;;;0.53;0.53;;;-0.10;99.90;;;;;;4994774;28;20549;-61
2020/12/25 07:20:51;;;;;;;0.40;0.40;;;-0.10;99.90;;;;;;4994671;28;20236;-62
2020/12/25 07:23:18;;;;;;;0.70;0.63;;;-0.10;99.90;;;;;;4994443;28;20229;-61
2020/12/25 07:25:45;;;;;;;1.17;0.70;;;-0.10;99.90;;;;;;4994873;28;20633;-61
2020/12/25 07:28:13;;;;;;;0.77;0.70;;;-0.10;99.90;;;;;;4994477;28;20196;-61
2020/12/25 07:30:40;;;;;;;1.20;0.50;;;-0.10;99.90;;;;;;4994405;28;20224;-63
2020/12/25 07:33:07;;;;;;;0.70;0.70;;;0.00;99.90;;;;;;4993141;28;20222;-62
2020/12/25 07:35:34;;;;;;;0.67;0.67;;;0.00;99.90;;;;;;5000036;28;20209;-66
2020/12/25 07:38:00;;;;;;;1.77;0.60;;;0.00;99.90;;;;;;4993927;28;20185;-63
2020/12/25 07:40:27;;;;;;;1.50;0.70;;;0.00;99.90;;;;;;4993925;28;20276;-61
2020/12/25 07:42:53;;;;;;;0.70;0.70;;;0.00;99.90;;;;;;4993737;28;20615;-61
2020/12/25 07:45:22;;;;;;;0.77;0.77;;;0.00;99.90;;;;;;4993648;28;20304;-62
2020/12/25 07:47:50;;;;;;;0.70;0.70;;;0.00;99.90;;;;;;4993769;28;20182;-62
2020/12/25 07:50:16;;;;;;;2.47;0.60;;;0.10;99.90;;;;;;4989036;28;20200;-62
2020/12/25 07:52:43;;;;;;;0.40;0.40;;;0.10;99.90;;;;;;4992121;28;20292;-61
2020/12/25 07:55:16;;;;;;;0.97;0.73;;;0.10;99.90;;;;;;4994045;28;20299;-62
2020/12/25 07:57:43;;;;;;;0.70;0.70;;;0.10;99.90;;;;;;4993795;28;20217;-63
2020/12/25 08:00:09;;;;;;;1.33;0.90;;;0.20;99.90;;;;;;4993648;28;20225;-63
2020/12/25 08:02:36;;;;;;;0.57;0.57;;;0.20;99.90;;;;;;4993251;28;20198;-60
2020/12/25 08:05:08;;;;;;;0.57;0.57;;;0.20;99.90;;;;;;4993483;28;20283;-62
2020/12/25 08:07:39;;;;;;;0.70;0.70;;;0.20;99.90;;;;;;4993164;28;20217;-63
2020/12/25 08:10:11;;;;;;;0.63;0.47;;;0.30;99.90;;;;;;4993420;28;20585;-63
2020/12/25 08:12:38;;;;;;;0.87;0.80;;;0.30;99.90;;;;;;4992841;28;20555;-65
2020/12/25 08:15:05;;;;;;;0.57;0.57;;;0.30;99.90;;;;;;4993086;28;20225;-62
2020/12/25 08:17:32;;;;;;;0.50;0.50;;;0.30;99.90;;;;;;4993342;28;20297;-63
2020/12/25 08:20:02;;;;;;;0.53;0.53;;;0.30;99.90;;;;;;4992433;28;20288;-64
2020/12/25 08:22:28;;;;;;;0.60;0.60;;;0.30;99.90;;;;;;4992720;28;20237;-62
2020/12/25 08:24:55;;;;;;;0.73;0.73;;;0.30;99.90;;;;;;4993320;28;20257;-63
2020/12/25 08:27:22;;;;;;;0.60;0.60;;;0.30;99.90;;;;;;4991869;28;20215;-62
2020/12/25 08:29:49;;;;;;;0.60;0.60;;;0.40;99.90;;;;;;4992466;28;20636;-61
2020/12/25 08:32:16;;;;;;;0.47;0.47;;;0.40;99.90;;;;;;4992947;28;20225;-62
2020/12/25 08:34:42;;;;;;;0.70;0.70;;;0.40;99.90;;;;;;4992642;28;20711;-62
2020/12/25 08:37:13;;;;;;;0.60;0.60;;;0.40;99.90;;;;;;4992612;28;20260;-63
2020/12/25 08:39:40;;;;;;;0.70;0.70;;;0.40;99.90;;;;;;4974164;28;20190;-65
2020/12/25 08:42:09;;;;;;;0.87;0.60;;;0.40;99.90;;;;;;4976215;28;20229;-65
2020/12/25 08:44:36;;;;;;;0.50;0.50;;;0.40;99.90;;;;;;4992923;28;20224;-65
2020/12/25 08:47:07;;;;;;;0.70;0.70;;;0.40;99.90;;;;;;4993183;28;20192;-65
2020/12/25 08:49:33;;;;;;;0.60;0.60;;;0.40;99.90;;;;;;4992331;28;20643;-65
2020/12/25 08:52:00;;;;;;;0.53;0.53;;;0.50;99.90;;;;;;4992745;28;20233;-65
2020/12/25 08:54:28;;;;;;;0.70;0.67;;;0.40;99.90;;;;;;4992833;28;20270;-65
2020/12/25 08:56:55;;;;;;;0.63;0.57;;;0.50;99.90;;;;;;4992674;28;20244;-66
2020/12/25 08:59:22;;;;;;;0.63;0.60;;;0.50;99.90;;;;;;4992698;28;20256;-66
2020/12/25 09:01:49;;;;;;;0.70;0.70;;;0.40;99.90;;;;;;4992436;28;20225;-65
2020/12/25 09:04:18;;;;;;;1.03;0.50;;;0.40;99.90;;;;;;4990085;28;20308;-65
2020/12/25 09:06:45;;;;;;;2.60;0.80;;;0.50;99.90;;;;;;4989195;28;20206;-65
2020/12/25 09:09:12;;;;;;;1.50;0.60;;;0.40;99.90;;;;;;4992647;28;20286;-65
2020/12/25 09:11:39;;;;;;;0.60;0.60;;;0.40;99.90;;;;;;4992272;28;20562;-65
2020/12/25 09:14:06;;;;;;;0.97;0.87;;;0.50;99.90;;;;;;4987946;28;20276;-65
2020/12/25 09:16:33;;;;;;;1.55;0.90;;;0.50;99.90;;;;;;4984444;28;20560;-68
2020/12/25 09:18:59;;;;;;;0.63;0.63;;;0.50;99.90;;;;;;4980780;28;20200;-65
2020/12/25 09:21:27;;;;;;;0.90;0.60;;;0.50;99.90;;;;;;4982493;28;20213;-66
2020/12/25 09:23:54;;;;;;;0.60;0.60;;;0.50;99.90;;;;;;4992802;28;20609;-67
2020/12/25 09:26:20;;;;;;;0.97;0.70;;;0.50;99.90;;;;;;4991642;28;20560;-67
2020/12/25 09:28:48;;;;;;;0.50;0.50;;;0.50;99.90;;;;;;4992456;28;20288;-68
2020/12/25 09:31:14;;;;;;;1.17;0.77;;;0.40;99.90;;;;;;4991950;28;20217;-68
2020/12/25 09:33:42;;;;;;;0.67;0.63;;;0.40;99.90;;;;;;4996877;28;20239;-69
2020/12/25 09:36:10;;;;;;;1.67;0.70;;;0.40;99.90;;;;;;4994165;28;20620;-68
2020/12/25 09:38:37;;;;;;;0.73;0.73;;;0.40;99.90;;;;;;4987989;28;20225;-68
2020/12/25 09:41:04;;;;;;;0.70;0.70;;;0.40;99.90;;;;;;4989989;28;20244;-67
2020/12/25 09:43:32;;;;;;;0.70;0.70;;;0.40;99.90;;;;;;4991402;28;20288;-67
2020/12/25 09:45:59;;;;;;;0.70;0.70;;;0.30;99.90;;;;;;4988861;28;20749;-69
2020/12/25 09:48:26;;;;;;;0.90;0.60;;;0.30;99.90;;;;;;4996390;28;20201;-70
2020/12/25 09:50:53;;;;;;;0.80;0.77;;;0.40;99.90;;;;;;4994883;28;20225;-68
2020/12/25 09:53:19;;;;;;;0.73;0.60;;;0.30;99.90;;;;;;4996007;28;20204;-69
2020/12/25 09:55:48;;;;;;;0.70;0.70;;;0.30;99.90;;;;;;4996409;28;20210;-67
2020/12/25 09:58:14;;;;;;;0.60;0.60;;;0.30;99.90;;;;;;4995109;28;20190;-68
2020/12/25 10:00:41;;;;;;;1.10;0.73;;;0.30;99.90;;;;;;4990609;28;20671;-69
2020/12/25 10:03:08;;;;;;;0.80;0.60;;;0.40;99.90;;;;;;4978634;28;20198;-67
2020/12/25 10:05:35;;;;;;;0.50;0.50;;;0.40;99.90;;;;;;4990123;28;20263;-68
2020/12/25 10:08:01;;;;;;;0.83;0.83;;;0.50;99.90;;;;;;4994413;28;20186;-71
2020/12/25 10:10:27;;;;;;;1.17;0.73;;;0.50;99.90;;;;;;4985001;28;20195;-68
2020/12/25 10:12:54;;;;;;;1.63;0.70;;;0.50;99.90;;;;;;4994900;28;20276;-69
2020/12/25 10:15:20;;;;;;;0.80;0.80;;;0.50;99.90;;;;;;4996337;28;20596;-70
2020/12/25 10:17:47;;;;;;;0.93;0.70;;;0.40;99.90;;;;;;4981474;28;20187;-66
2020/12/25 10:20:14;;;;;;;0.93;0.70;;;0.40;99.90;;;;;;4993675;28;20190;-66
2020/12/25 10:22:41;;;;;;;0.83;0.67;;;0.50;99.90;;;;;;4990543;28;20193;-67
2020/12/25 10:25:07;;;;;;;3.53;0.70;;;0.40;99.90;;;;;;4993046;28;20225;-69
2020/12/25 10:27:34;;;;;;;0.70;0.70;;;0.50;99.90;;;;;;4985350;28;20229;-66
2020/12/25 10:30:00;;;;;;;0.77;0.77;;;0.50;99.90;;;;;;4981548;28;20636;-67
2020/12/25 10:32:26;;;;;;;1.10;0.70;;;0.40;99.90;;;;;;4976219;28;20237;-67
2020/12/25 10:34:53;;;;;;;0.80;0.80;;;0.40;99.90;;;;;;4979195;28;20288;-68
2020/12/25 10:37:20;;;;;;;1.20;1.10;;;0.40;99.90;;;;;;4983919;28;20183;-68
2020/12/25 10:39:47;;;;;;;0.70;0.70;;;0.40;99.90;;;;;;4989710;28;20617;-66
2020/12/25 10:42:14;;;;;;;0.80;0.60;;;0.40;99.90;;;;;;4995020;28;20233;-65
2020/12/25 10:44:40;;;;;;;1.97;1.00;;;0.40;99.90;;;;;;4995681;28;20567;-68
2020/12/25 10:47:07;;;;;;;1.93;0.87;;;0.40;99.90;;;;;;4995420;28;20244;-67
2020/12/25 10:49:33;;;;;;;1.90;0.90;;;0.40;99.90;;;;;;4995475;28;20241;-67
2020/12/25 10:52:00;;;;;;;0.63;0.60;;;0.40;99.90;;;;;;4995100;28;20332;-66
2020/12/25 10:54:27;;;;;;;4.83;0.87;;;0.40;99.90;;;;;;4995762;28;20311;-68
2020/12/25 10:56:53;;;;;;;0.90;0.80;;;0.30;99.90;;;;;;4995017;28;20181;-66
2020/12/25 10:59:20;;;;;;;0.70;0.70;;;0.30;99.90;;;;;;4994277;28;20221;-68
2020/12/25 11:01:48;;;;;;;0.93;0.87;;;0.30;99.90;;;;;;4995103;28;20246;-67
2020/12/25 11:04:15;;;;;;;0.70;0.70;;;0.30;99.90;;;;;;4992076;28;20229;-68
2020/12/25 11:06:42;;;;;;;0.77;0.73;;;0.30;99.90;;;;;;4975401;28;20273;-64
2020/12/25 11:09:09;;;;;;;0.73;0.73;;;0.30;99.90;;;;;;4986935;28;20209;-66
2020/12/25 11:11:39;;;;;;;0.60;0.60;;;0.40;99.90;;;;;;4994703;28;20292;-67
2020/12/25 11:14:07;;;;;;;0.80;0.80;;;0.50;99.90;;;;;;4979485;28;20198;-66
2020/12/25 11:16:35;;;;;;;0.73;0.73;;;0.40;99.90;;;;;;4986018;28;20559;-64
2020/12/25 11:19:04;;;;;;;2.47;0.97;;;0.40;99.90;;;;;;4994731;28;20201;-67
2020/12/25 11:21:31;;;;;;;1.07;0.77;;;0.30;99.90;;;;;;4994364;28;20236;-67
2020/12/25 11:24:00;;;;;;;2.40;0.90;;;0.20;99.90;;;;;;4994611;28;20312;-66
2020/12/25 11:26:28;;;;;;;0.80;0.80;;;0.30;99.90;;;;;;4994638;28;20311;-66
2020/12/25 11:28:56;;;;;;;1.00;0.70;;;0.30;99.90;;;;;;4994796;28;20232;-65
2020/12/25 11:31:23;;;;;;;1.80;0.90;;;0.20;99.90;;;;;;4985692;28;20198;-67
2020/12/25 11:33:51;;;;;;;0.80;0.80;;;0.20;99.90;;;;;;4975203;28;20225;-67
2020/12/25 11:36:19;;;;;;;1.00;0.80;;;0.10;99.90;;;;;;4974927;28;20186;-65
2020/12/25 11:38:46;;;;;;;0.80;0.80;;;0.10;99.90;;;;;;4979412;28;20616;-66
2020/12/25 11:41:14;;;;;;;5.60;1.77;;;0.10;99.90;;;;;;4993999;28;20318;-65
2020/12/25 11:43:41;;;;;;;1.53;0.90;;;0.10;99.90;;;;;;4994117;28;20248;-65
2020/12/25 11:46:09;;;;;;;2.17;0.90;;;0.00;99.90;;;;;;4993915;28;20391;-68
2020/12/25 11:48:36;;;;;;;0.83;0.70;;;0.00;99.90;;;;;;4994017;28;20280;-67
2020/12/25 11:51:03;;;;;;;1.27;0.80;;;0.00;99.90;;;;;;4993724;28;20544;-65
2020/12/25 11:53:29;;;;;;;2.20;1.40;;;0.00;99.90;;;;;;4993590;28;20288;-66
2020/12/25 11:55:56;;;;;;;1.77;1.20;;;0.00;99.90;;;;;;4993538;28;20236;-66
2020/12/25 11:58:22;;;;;;;1.70;1.17;;;0.00;99.90;;;;;;4994120;28;20605;-65
2020/12/25 12:00:49;;;;;;;2.47;0.87;;;0.10;99.90;;;;;;4977115;28;20288;-66
2020/12/25 12:03:16;;;;;;;2.63;1.00;;;0.00;99.90;;;;;;4974754;28;20252;-67
2020/12/25 12:05:43;;;;;;;1.17;1.00;;;0.00;99.90;;;;;;4974052;28;20253;-67
2020/12/25 12:08:10;;;;;;;1.00;0.90;;;0.00;99.90;;;;;;4992658;28;20217;-65
2020/12/25 12:10:38;;;;;;;2.63;1.00;;;0.00;99.90;;;;;;4993214;28;20685;-66
2020/12/25 12:13:04;;;;;;;1.13;0.60;;;-0.10;99.90;;;;;;4993348;28;20233;-67
2020/12/25 12:15:35;;;;;;;2.63;0.90;;;-0.10;99.90;;;;;;4993149;28;20237;-65
2020/12/25 12:18:01;;;;;;;1.63;1.10;;;-0.10;99.90;;;;;;4992904;28;20273;-65
2020/12/25 12:20:29;;;;;;;1.63;1.10;;;0.00;99.90;;;;;;4993172;28;20328;-65
2020/12/25 12:22:56;;;;;;;1.43;1.23;;;0.00;99.90;;;;;;4993177;28;20742;-64
2020/12/25 12:25:23;;;;;;;2.33;1.03;;;0.00;99.90;;;;;;4993496;28;20276;-65
2020/12/25 12:27:49;;;;;;;2.77;1.37;;;-0.10;99.90;;;;;;4992779;28;20277;-67
2020/12/25 12:30:16;;;;;;;1.60;1.17;;;-0.20;99.90;;;;;;4993264;28;20287;-68
2020/12/25 12:32:42;;;;;;;2.87;1.17;;;-0.20;99.90;;;;;;4993217;28;20204;-66
2020/12/25 12:35:09;;;;;;;3.60;1.40;;;-0.20;99.90;;;;;;4993331;28;20631;-66
2020/12/25 12:37:36;;;;;;;2.60;1.57;;;-0.20;99.90;;;;;;4993477;28;20224;-66
2020/12/25 12:40:03;;;;;;;2.10;1.43;;;-0.20;99.90;;;;;;4993122;28;20717;-66
2020/12/25 12:42:31;;;;;;;1.40;1.00;;;-0.20;99.90;;;;;;4978267;28;20335;-71
2020/12/25 12:44:58;;;;;;;2.97;1.30;;;-0.20;99.90;;;;;;4984983;28;20225;-71
2020/12/25 12:47:24;;;;;;;3.27;0.90;;;-0.30;99.90;;;;;;4994778;28;20189;-71
2020/12/25 12:49:51;;;;;;;2.50;1.13;;;-0.30;99.90;;;;;;4994667;28;20228;-70
2020/12/25 12:52:17;;;;;;;1.17;0.80;;;-0.30;99.90;;;;;;4997294;28;20682;-74
2020/12/25 12:54:44;;;;;;;2.70;1.20;;;-0.20;99.90;;;;;;4997459;28;20287;-70